sensor_id;sensor_type;location;lat;lon;timestamp;P1;durP1;ratioP1;P2;durP2;ratioP2
13255;SDS011;37913;48.370;10.930;2023-04-15T00:00:09;86.22;;;35.95;;
13255;SDS011;37913;48.370;10.930;2023-04-15T00:02:37;82.30;;;35.38;;
13255;SDS011;37913;48.370;10.930;2023-04-15T00:05:06;84.03;;;35.80;;
13255;SDS011;37913;48.370;10.930;2023-04-15T00:07:34;80.82;;;35.10;;
13255;SDS011;37913;48.370;10.930;2023-04-15T00:10:01;82.60;;;35.33;;
13255;SDS011;37913;48.370;10.930;2023-04-15T00:12:28;91.60;;;36.85;;
13255;SDS011;37913;48.370;10.930;2023-04-15T00:14:55;91.78;;;36.58;;
13255;SDS011;37913;48.370;10.930;2023-04-15T00:17:23;79.55;;;35.55;;
13255;SDS011;37913;48.370;10.930;2023-04-15T00:19:50;81.95;;;34.97;;
13255;SDS011;37913;48.370;10.930;2023-04-15T00:22:18;79.13;;;34.35;;
13255;SDS011;37913;48.370;10.930;2023-04-15T00:24:45;92.55;;;37.40;;
13255;SDS011;37913;48.370;10.930;2023-04-15T00:27:12;80.40;;;34.42;;
13255;SDS011;37913;48.370;10.930;2023-04-15T00:29:39;80.18;;;35.15;;
13255;SDS011;37913;48.370;10.930;2023-04-15T00:32:06;81.53;;;35.75;;
13255;SDS011;37913;48.370;10.930;2023-04-15T00:34:33;78.25;;;34.08;;
13255;SDS011;37913;48.370;10.930;2023-04-15T00:37:00;82.43;;;35.22;;
13255;SDS011;37913;48.370;10.930;2023-04-15T00:39:29;85.45;;;35.90;;
13255;SDS011;37913;48.370;10.930;2023-04-15T00:41:56;86.38;;;36.40;;
13255;SDS011;37913;48.370;10.930;2023-04-15T00:44:23;76.88;;;33.63;;
13255;SDS011;37913;48.370;10.930;2023-04-15T00:46:51;87.38;;;35.92;;
13255;SDS011;37913;48.370;10.930;2023-04-15T00:49:18;79.82;;;34.75;;
13255;SDS011;37913;48.370;10.930;2023-04-15T00:51:45;82.82;;;35.03;;
13255;SDS011;37913;48.370;10.930;2023-04-15T00:54:12;85.25;;;35.08;;
13255;SDS011;37913;48.370;10.930;2023-04-15T00:56:40;78.25;;;34.30;;
13255;SDS011;37913;48.370;10.930;2023-04-15T00:59:07;74.32;;;33.38;;
13255;SDS011;37913;48.370;10.930;2023-04-15T01:01:35;81.63;;;34.63;;
13255;SDS011;37913;48.370;10.930;2023-04-15T01:04:02;69.97;;;32.65;;
13255;SDS011;37913;48.370;10.930;2023-04-15T01:06:30;81.75;;;33.95;;
13255;SDS011;37913;48.370;10.930;2023-04-15T01:08:58;77.55;;;33.85;;
13255;SDS011;37913;48.370;10.930;2023-04-15T01:11:25;75.25;;;33.90;;
13255;SDS011;37913;48.370;10.930;2023-04-15T01:13:55;80.22;;;34.67;;
13255;SDS011;37913;48.370;10.930;2023-04-15T01:16:28;79.10;;;34.25;;
13255;SDS011;37913;48.370;10.930;2023-04-15T01:18:55;76.70;;;33.72;;
13255;SDS011;37913;48.370;10.930;2023-04-15T01:21:22;81.53;;;34.78;;
13255;SDS011;37913;48.370;10.930;2023-04-15T01:23:49;78.93;;;33.85;;
13255;SDS011;37913;48.370;10.930;2023-04-15T01:26:19;80.80;;;34.72;;
13255;SDS011;37913;48.370;10.930;2023-04-15T01:28:47;80.95;;;34.53;;
13255;SDS011;37913;48.370;10.930;2023-04-15T01:31:14;77.95;;;33.97;;
13255;SDS011;37913;48.370;10.930;2023-04-15T01:33:42;78.53;;;34.03;;
13255;SDS011;37913;48.370;10.930;2023-04-15T01:36:09;79.85;;;34.67;;
13255;SDS011;37913;48.370;10.930;2023-04-15T01:38:36;81.78;;;34.53;;
13255;SDS011;37913;48.370;10.930;2023-04-15T01:41:03;79.70;;;34.70;;
13255;SDS011;37913;48.370;10.930;2023-04-15T01:43:33;77.95;;;33.67;;
13255;SDS011;37913;48.370;10.930;2023-04-15T01:46:01;76.13;;;33.42;;
13255;SDS011;37913;48.370;10.930;2023-04-15T01:48:28;81.75;;;34.42;;
13255;SDS011;37913;48.370;10.930;2023-04-15T01:50:55;76.70;;;33.67;;
13255;SDS011;37913;48.370;10.930;2023-04-15T01:53:22;74.60;;;33.10;;
13255;SDS011;37913;48.370;10.930;2023-04-15T01:55:50;78.22;;;33.88;;
13255;SDS011;37913;48.370;10.930;2023-04-15T01:58:17;78.05;;;33.70;;
13255;SDS011;37913;48.370;10.930;2023-04-15T02:00:46;77.60;;;33.80;;
13255;SDS011;37913;48.370;10.930;2023-04-15T02:03:13;82.88;;;34.55;;
13255;SDS011;37913;48.370;10.930;2023-04-15T02:05:39;74.93;;;33.83;;
13255;SDS011;37913;48.370;10.930;2023-04-15T02:08:06;77.82;;;33.95;;
13255;SDS011;37913;48.370;10.930;2023-04-15T02:10:34;77.22;;;34.47;;
13255;SDS011;37913;48.370;10.930;2023-04-15T02:13:01;81.18;;;34.08;;
13255;SDS011;37913;48.370;10.930;2023-04-15T02:15:28;82.25;;;34.42;;
13255;SDS011;37913;48.370;10.930;2023-04-15T02:17:57;74.45;;;33.10;;
13255;SDS011;37913;48.370;10.930;2023-04-15T02:20:25;75.05;;;33.45;;
13255;SDS011;37913;48.370;10.930;2023-04-15T02:22:52;81.10;;;34.45;;
13255;SDS011;37913;48.370;10.930;2023-04-15T02:25:18;81.07;;;33.78;;
13255;SDS011;37913;48.370;10.930;2023-04-15T02:27:45;81.53;;;34.72;;
13255;SDS011;37913;48.370;10.930;2023-04-15T02:30:12;80.68;;;33.90;;
13255;SDS011;37913;48.370;10.930;2023-04-15T02:32:39;78.88;;;34.47;;
13255;SDS011;37913;48.370;10.930;2023-04-15T02:35:10;80.82;;;34.10;;
13255;SDS011;37913;48.370;10.930;2023-04-15T02:37:37;85.22;;;34.42;;
13255;SDS011;37913;48.370;10.930;2023-04-15T02:40:07;76.30;;;33.50;;
13255;SDS011;37913;48.370;10.930;2023-04-15T02:42:36;76.40;;;33.75;;
13255;SDS011;37913;48.370;10.930;2023-04-15T02:45:04;78.03;;;33.95;;
13255;SDS011;37913;48.370;10.930;2023-04-15T02:47:32;82.25;;;34.80;;
13255;SDS011;37913;48.370;10.930;2023-04-15T02:49:59;84.78;;;34.85;;
13255;SDS011;37913;48.370;10.930;2023-04-15T02:52:27;77.22;;;33.72;;
13255;SDS011;37913;48.370;10.930;2023-04-15T02:54:54;95.32;;;36.88;;
13255;SDS011;37913;48.370;10.930;2023-04-15T02:57:24;80.88;;;34.00;;
13255;SDS011;37913;48.370;10.930;2023-04-15T02:59:52;71.35;;;32.22;;
13255;SDS011;37913;48.370;10.930;2023-04-15T03:02:19;73.70;;;32.83;;
13255;SDS011;37913;48.370;10.930;2023-04-15T03:04:46;95.03;;;36.45;;
13255;SDS011;37913;48.370;10.930;2023-04-15T03:07:13;82.30;;;35.08;;
13255;SDS011;37913;48.370;10.930;2023-04-15T03:09:42;76.10;;;32.78;;
13255;SDS011;37913;48.370;10.930;2023-04-15T03:12:09;79.68;;;34.00;;
13255;SDS011;37913;48.370;10.930;2023-04-15T03:14:36;77.82;;;33.08;;
13255;SDS011;37913;48.370;10.930;2023-04-15T03:17:04;80.25;;;34.28;;
13255;SDS011;37913;48.370;10.930;2023-04-15T03:19:30;80.00;;;33.90;;
13255;SDS011;37913;48.370;10.930;2023-04-15T03:21:57;78.75;;;33.75;;
13255;SDS011;37913;48.370;10.930;2023-04-15T03:24:24;70.13;;;32.17;;
13255;SDS011;37913;48.370;10.930;2023-04-15T03:26:55;78.00;;;33.50;;
13255;SDS011;37913;48.370;10.930;2023-04-15T03:29:22;88.60;;;35.50;;
13255;SDS011;37913;48.370;10.930;2023-04-15T03:31:51;82.47;;;34.90;;
13255;SDS011;37913;48.370;10.930;2023-04-15T03:34:18;78.10;;;33.95;;
13255;SDS011;37913;48.370;10.930;2023-04-15T03:36:45;74.53;;;33.75;;
13255;SDS011;37913;48.370;10.930;2023-04-15T03:39:12;85.80;;;34.40;;
13255;SDS011;37913;48.370;10.930;2023-04-15T03:41:39;73.03;;;32.97;;
13255;SDS011;37913;48.370;10.930;2023-04-15T03:44:07;69.20;;;31.65;;
13255;SDS011;37913;48.370;10.930;2023-04-15T03:46:34;81.50;;;34.55;;
13255;SDS011;37913;48.370;10.930;2023-04-15T03:49:01;73.80;;;32.70;;
13255;SDS011;37913;48.370;10.930;2023-04-15T03:51:28;71.80;;;32.83;;
13255;SDS011;37913;48.370;10.930;2023-04-15T03:53:55;82.70;;;34.60;;
13255;SDS011;37913;48.370;10.930;2023-04-15T03:56:22;79.10;;;34.00;;
13255;SDS011;37913;48.370;10.930;2023-04-15T03:58:50;81.72;;;34.70;;
13255;SDS011;37913;48.370;10.930;2023-04-15T04:01:18;86.43;;;34.65;;
13255;SDS011;37913;48.370;10.930;2023-04-15T04:03:45;76.27;;;33.70;;
13255;SDS011;37913;48.370;10.930;2023-04-15T04:06:12;82.37;;;33.83;;
13255;SDS011;37913;48.370;10.930;2023-04-15T04:08:39;81.00;;;34.30;;
13255;SDS011;37913;48.370;10.930;2023-04-15T04:11:06;89.40;;;35.40;;
13255;SDS011;37913;48.370;10.930;2023-04-15T04:13:33;78.68;;;33.80;;
13255;SDS011;37913;48.370;10.930;2023-04-15T04:16:01;75.80;;;33.85;;
13255;SDS011;37913;48.370;10.930;2023-04-15T04:18:30;66.25;;;31.23;;
13255;SDS011;37913;48.370;10.930;2023-04-15T04:20:57;96.97;;;36.67;;
13255;SDS011;37913;48.370;10.930;2023-04-15T04:23:25;76.95;;;33.25;;
13255;SDS011;37913;48.370;10.930;2023-04-15T04:25:52;78.50;;;33.55;;
13255;SDS011;37913;48.370;10.930;2023-04-15T04:28:18;90.53;;;35.30;;
13255;SDS011;37913;48.370;10.930;2023-04-15T04:30:51;70.88;;;32.42;;
13255;SDS011;37913;48.370;10.930;2023-04-15T04:33:18;68.97;;;32.08;;
13255;SDS011;37913;48.370;10.930;2023-04-15T04:35:47;85.97;;;34.50;;
13255;SDS011;37913;48.370;10.930;2023-04-15T04:38:13;66.15;;;31.45;;
13255;SDS011;37913;48.370;10.930;2023-04-15T04:40:40;76.65;;;32.85;;
13255;SDS011;37913;48.370;10.930;2023-04-15T04:43:07;95.10;;;37.63;;
13255;SDS011;37913;48.370;10.930;2023-04-15T04:45:34;76.53;;;33.72;;
13255;SDS011;37913;48.370;10.930;2023-04-15T04:48:01;79.18;;;33.75;;
13255;SDS011;37913;48.370;10.930;2023-04-15T04:50:33;75.97;;;33.95;;
13255;SDS011;37913;48.370;10.930;2023-04-15T04:53:02;73.97;;;33.13;;
13255;SDS011;37913;48.370;10.930;2023-04-15T04:55:29;75.50;;;33.30;;
13255;SDS011;37913;48.370;10.930;2023-04-15T04:57:56;69.57;;;31.90;;
13255;SDS011;37913;48.370;10.930;2023-04-15T05:00:23;76.93;;;33.03;;
13255;SDS011;37913;48.370;10.930;2023-04-15T05:02:50;74.72;;;33.85;;
13255;SDS011;37913;48.370;10.930;2023-04-15T05:05:17;81.03;;;34.13;;
13255;SDS011;37913;48.370;10.930;2023-04-15T05:07:44;78.47;;;33.90;;
13255;SDS011;37913;48.370;10.930;2023-04-15T05:10:14;80.90;;;33.63;;
13255;SDS011;37913;48.370;10.930;2023-04-15T05:12:42;72.82;;;32.10;;
13255;SDS011;37913;48.370;10.930;2023-04-15T05:15:09;78.47;;;33.25;;
13255;SDS011;37913;48.370;10.930;2023-04-15T05:17:36;86.07;;;34.47;;
13255;SDS011;37913;48.370;10.930;2023-04-15T05:20:03;76.97;;;32.50;;
13255;SDS011;37913;48.370;10.930;2023-04-15T05:22:31;84.68;;;34.45;;
13255;SDS011;37913;48.370;10.930;2023-04-15T05:24:58;83.70;;;33.97;;
13255;SDS011;37913;48.370;10.930;2023-04-15T05:27:26;78.95;;;33.22;;
13255;SDS011;37913;48.370;10.930;2023-04-15T05:29:53;77.93;;;35.42;;
13255;SDS011;37913;48.370;10.930;2023-04-15T05:32:21;91.25;;;35.20;;
13255;SDS011;37913;48.370;10.930;2023-04-15T05:34:48;90.90;;;41.30;;
13255;SDS011;37913;48.370;10.930;2023-04-15T05:37:15;78.57;;;36.47;;
13255;SDS011;37913;48.370;10.930;2023-04-15T05:39:41;81.43;;;35.67;;
13255;SDS011;37913;48.370;10.930;2023-04-15T05:42:08;80.00;;;36.15;;
13255;SDS011;37913;48.370;10.930;2023-04-15T05:44:37;82.78;;;38.35;;
13255;SDS011;37913;48.370;10.930;2023-04-15T05:47:04;69.88;;;31.20;;
13255;SDS011;37913;48.370;10.930;2023-04-15T05:49:31;76.50;;;33.15;;
13255;SDS011;37913;48.370;10.930;2023-04-15T05:51:58;79.20;;;33.45;;
13255;SDS011;37913;48.370;10.930;2023-04-15T05:54:25;78.97;;;33.05;;
13255;SDS011;37913;48.370;10.930;2023-04-15T05:56:53;79.15;;;33.60;;
13255;SDS011;37913;48.370;10.930;2023-04-15T05:59:20;84.45;;;34.28;;
13255;SDS011;37913;48.370;10.930;2023-04-15T06:01:48;76.53;;;32.90;;
13255;SDS011;37913;48.370;10.930;2023-04-15T06:04:16;78.85;;;33.17;;
13255;SDS011;37913;48.370;10.930;2023-04-15T06:06:43;80.90;;;32.92;;
13255;SDS011;37913;48.370;10.930;2023-04-15T06:09:10;77.68;;;32.72;;
13255;SDS011;37913;48.370;10.930;2023-04-15T06:11:37;76.80;;;32.72;;
13255;SDS011;37913;48.370;10.930;2023-04-15T06:14:05;78.82;;;32.75;;
13255;SDS011;37913;48.370;10.930;2023-04-15T06:16:32;78.93;;;33.08;;
13255;SDS011;37913;48.370;10.930;2023-04-15T06:19:02;72.05;;;31.58;;
13255;SDS011;37913;48.370;10.930;2023-04-15T06:21:29;78.07;;;32.55;;
13255;SDS011;37913;48.370;10.930;2023-04-15T06:23:57;78.95;;;33.45;;
13255;SDS011;37913;48.370;10.930;2023-04-15T06:26:25;78.95;;;32.90;;
13255;SDS011;37913;48.370;10.930;2023-04-15T06:28:52;73.18;;;32.05;;
13255;SDS011;37913;48.370;10.930;2023-04-15T06:31:20;77.53;;;32.97;;
13255;SDS011;37913;48.370;10.930;2023-04-15T06:33:47;77.60;;;33.00;;
13255;SDS011;37913;48.370;10.930;2023-04-15T06:36:15;73.72;;;31.63;;
13255;SDS011;37913;48.370;10.930;2023-04-15T06:38:42;73.95;;;32.03;;
13255;SDS011;37913;48.370;10.930;2023-04-15T06:41:09;74.97;;;32.28;;
13255;SDS011;37913;48.370;10.930;2023-04-15T06:43:36;91.63;;;35.05;;
13255;SDS011;37913;48.370;10.930;2023-04-15T06:46:03;68.40;;;30.98;;
13255;SDS011;37913;48.370;10.930;2023-04-15T06:48:31;75.45;;;32.38;;
13255;SDS011;37913;48.370;10.930;2023-04-15T06:50:58;74.70;;;31.98;;
13255;SDS011;37913;48.370;10.930;2023-04-15T06:53:26;84.85;;;34.25;;
13255;SDS011;37913;48.370;10.930;2023-04-15T06:55:53;75.00;;;32.72;;
13255;SDS011;37913;48.370;10.930;2023-04-15T06:58:20;77.28;;;33.28;;
13255;SDS011;37913;48.370;10.930;2023-04-15T07:00:47;71.82;;;32.10;;
13255;SDS011;37913;48.370;10.930;2023-04-15T07:03:14;81.88;;;34.20;;
13255;SDS011;37913;48.370;10.930;2023-04-15T07:05:41;83.40;;;34.33;;
13255;SDS011;37913;48.370;10.930;2023-04-15T07:08:08;79.97;;;33.63;;
13255;SDS011;37913;48.370;10.930;2023-04-15T07:10:36;85.70;;;35.25;;
13255;SDS011;37913;48.370;10.930;2023-04-15T07:13:03;86.03;;;34.97;;
13255;SDS011;37913;48.370;10.930;2023-04-15T07:15:32;90.10;;;35.85;;
13255;SDS011;37913;48.370;10.930;2023-04-15T07:17:59;98.53;;;37.58;;
13255;SDS011;37913;48.370;10.930;2023-04-15T07:20:25;77.82;;;33.53;;
13255;SDS011;37913;48.370;10.930;2023-04-15T07:22:52;84.82;;;34.70;;
13255;SDS011;37913;48.370;10.930;2023-04-15T07:25:19;86.78;;;35.33;;
13255;SDS011;37913;48.370;10.930;2023-04-15T07:27:48;81.47;;;33.97;;
13255;SDS011;37913;48.370;10.930;2023-04-15T07:30:15;81.25;;;33.78;;
13255;SDS011;37913;48.370;10.930;2023-04-15T07:32:42;86.97;;;35.10;;
13255;SDS011;37913;48.370;10.930;2023-04-15T07:35:09;81.97;;;33.80;;
13255;SDS011;37913;48.370;10.930;2023-04-15T07:37:37;83.38;;;34.88;;
13255;SDS011;37913;48.370;10.930;2023-04-15T07:40:06;78.50;;;34.90;;
13255;SDS011;37913;48.370;10.930;2023-04-15T07:42:34;79.47;;;34.33;;
13255;SDS011;37913;48.370;10.930;2023-04-15T07:45:04;89.63;;;35.97;;
13255;SDS011;37913;48.370;10.930;2023-04-15T07:47:31;85.28;;;35.50;;
13255;SDS011;37913;48.370;10.930;2023-04-15T07:49:58;86.75;;;37.55;;
13255;SDS011;37913;48.370;10.930;2023-04-15T07:52:26;89.38;;;36.35;;
13255;SDS011;37913;48.370;10.930;2023-04-15T07:54:53;88.88;;;36.70;;
13255;SDS011;37913;48.370;10.930;2023-04-15T07:57:20;87.55;;;37.50;;
13255;SDS011;37913;48.370;10.930;2023-04-15T07:59:47;83.05;;;34.78;;
13255;SDS011;37913;48.370;10.930;2023-04-15T08:02:15;85.47;;;38.60;;
13255;SDS011;37913;48.370;10.930;2023-04-15T08:04:42;101.43;;;40.28;;
13255;SDS011;37913;48.370;10.930;2023-04-15T08:07:09;84.97;;;37.13;;
13255;SDS011;37913;48.370;10.930;2023-04-15T08:09:36;89.78;;;37.97;;
13255;SDS011;37913;48.370;10.930;2023-04-15T08:12:03;74.63;;;35.78;;
13255;SDS011;37913;48.370;10.930;2023-04-15T08:14:32;87.15;;;37.75;;
13255;SDS011;37913;48.370;10.930;2023-04-15T08:17:00;81.13;;;36.78;;
13255;SDS011;37913;48.370;10.930;2023-04-15T08:19:28;78.03;;;37.70;;
13255;SDS011;37913;48.370;10.930;2023-04-15T08:21:55;83.43;;;40.05;;
13255;SDS011;37913;48.370;10.930;2023-04-15T08:24:23;82.88;;;37.10;;
13255;SDS011;37913;48.370;10.930;2023-04-15T08:26:51;88.32;;;37.92;;
13255;SDS011;37913;48.370;10.930;2023-04-15T08:29:18;82.03;;;36.65;;
13255;SDS011;37913;48.370;10.930;2023-04-15T08:31:45;81.57;;;36.15;;
13255;SDS011;37913;48.370;10.930;2023-04-15T08:34:12;88.53;;;40.25;;
13255;SDS011;37913;48.370;10.930;2023-04-15T08:36:41;96.25;;;39.60;;
13255;SDS011;37913;48.370;10.930;2023-04-15T08:39:08;90.70;;;38.47;;
13255;SDS011;37913;48.370;10.930;2023-04-15T08:41:37;93.35;;;39.55;;
13255;SDS011;37913;48.370;10.930;2023-04-15T08:44:06;89.35;;;37.88;;
13255;SDS011;37913;48.370;10.930;2023-04-15T08:46:33;83.05;;;36.40;;
13255;SDS011;37913;48.370;10.930;2023-04-15T08:49:02;97.75;;;40.65;;
13255;SDS011;37913;48.370;10.930;2023-04-15T08:51:30;84.03;;;36.40;;
13255;SDS011;37913;48.370;10.930;2023-04-15T08:54:02;87.20;;;37.40;;
13255;SDS011;37913;48.370;10.930;2023-04-15T08:56:30;94.78;;;38.95;;
13255;SDS011;37913;48.370;10.930;2023-04-15T08:58:58;86.50;;;36.08;;
13255;SDS011;37913;48.370;10.930;2023-04-15T09:01:25;91.15;;;37.63;;
13255;SDS011;37913;48.370;10.930;2023-04-15T09:03:52;85.13;;;37.47;;
13255;SDS011;37913;48.370;10.930;2023-04-15T09:06:19;87.07;;;36.90;;
13255;SDS011;37913;48.370;10.930;2023-04-15T09:08:48;84.18;;;36.85;;
13255;SDS011;37913;48.370;10.930;2023-04-15T09:11:17;84.35;;;36.50;;
13255;SDS011;37913;48.370;10.930;2023-04-15T09:13:44;92.72;;;37.88;;
13255;SDS011;37913;48.370;10.930;2023-04-15T09:16:12;80.40;;;37.10;;
13255;SDS011;37913;48.370;10.930;2023-04-15T09:18:39;85.47;;;36.63;;
13255;SDS011;37913;48.370;10.930;2023-04-15T09:21:07;80.75;;;36.05;;
13255;SDS011;37913;48.370;10.930;2023-04-15T09:23:35;89.38;;;36.97;;
13255;SDS011;37913;48.370;10.930;2023-04-15T09:26:03;86.20;;;36.85;;
13255;SDS011;37913;48.370;10.930;2023-04-15T09:28:32;80.20;;;35.10;;
13255;SDS011;37913;48.370;10.930;2023-04-15T09:31:06;94.38;;;38.80;;
13255;SDS011;37913;48.370;10.930;2023-04-15T09:33:34;96.68;;;39.13;;
13255;SDS011;37913;48.370;10.930;2023-04-15T09:36:02;92.65;;;39.40;;
13255;SDS011;37913;48.370;10.930;2023-04-15T09:38:30;80.85;;;36.40;;
13255;SDS011;37913;48.370;10.930;2023-04-15T09:40:58;87.97;;;37.40;;
13255;SDS011;37913;48.370;10.930;2023-04-15T09:43:37;78.28;;;36.03;;
13255;SDS011;37913;48.370;10.930;2023-04-15T09:46:05;89.80;;;38.08;;
13255;SDS011;37913;48.370;10.930;2023-04-15T09:48:32;85.32;;;37.35;;
13255;SDS011;37913;48.370;10.930;2023-04-15T09:50:59;85.75;;;37.58;;
13255;SDS011;37913;48.370;10.930;2023-04-15T09:53:26;90.78;;;38.60;;
13255;SDS011;37913;48.370;10.930;2023-04-15T09:55:54;91.45;;;39.08;;
13255;SDS011;37913;48.370;10.930;2023-04-15T09:58:23;87.40;;;39.05;;
13255;SDS011;37913;48.370;10.930;2023-04-15T10:00:53;93.53;;;39.88;;
13255;SDS011;37913;48.370;10.930;2023-04-15T10:03:21;96.68;;;40.92;;
13255;SDS011;37913;48.370;10.930;2023-04-15T10:05:51;87.18;;;39.25;;
13255;SDS011;37913;48.370;10.930;2023-04-15T10:08:20;83.95;;;39.63;;
13255;SDS011;37913;48.370;10.930;2023-04-15T10:10:49;99.82;;;43.17;;
13255;SDS011;37913;48.370;10.930;2023-04-15T10:13:17;94.80;;;42.85;;
13255;SDS011;37913;48.370;10.930;2023-04-15T10:15:47;94.00;;;42.55;;
13255;SDS011;37913;48.370;10.930;2023-04-15T10:18:19;97.35;;;43.47;;
13255;SDS011;37913;48.370;10.930;2023-04-15T10:20:48;105.18;;;46.60;;
13255;SDS011;37913;48.370;10.930;2023-04-15T10:23:16;94.97;;;44.53;;
13255;SDS011;37913;48.370;10.930;2023-04-15T10:25:44;93.10;;;44.95;;
13255;SDS011;37913;48.370;10.930;2023-04-15T10:28:12;100.63;;;46.30;;
13255;SDS011;37913;48.370;10.930;2023-04-15T10:30:41;94.30;;;45.65;;
13255;SDS011;37913;48.370;10.930;2023-04-15T10:33:08;89.43;;;44.25;;
13255;SDS011;37913;48.370;10.930;2023-04-15T10:35:38;99.80;;;44.90;;
13255;SDS011;37913;48.370;10.930;2023-04-15T10:41:13;90.78;;;43.42;;
13255;SDS011;37913;48.370;10.930;2023-04-15T10:43:46;86.53;;;42.58;;
13255;SDS011;37913;48.370;10.930;2023-04-15T10:46:18;111.78;;;46.90;;
13255;SDS011;37913;48.370;10.930;2023-04-15T10:48:47;104.40;;;45.00;;
13255;SDS011;37913;48.370;10.930;2023-04-15T10:51:17;109.03;;;45.88;;
13255;SDS011;37913;48.370;10.930;2023-04-15T10:53:55;91.20;;;40.78;;
13255;SDS011;37913;48.370;10.930;2023-04-15T10:56:23;94.80;;;40.72;;
13255;SDS011;37913;48.370;10.930;2023-04-15T10:58:50;90.07;;;39.58;;
13255;SDS011;37913;48.370;10.930;2023-04-15T11:01:18;84.30;;;38.05;;
13255;SDS011;37913;48.370;10.930;2023-04-15T11:03:47;91.90;;;39.75;;
13255;SDS011;37913;48.370;10.930;2023-04-15T11:06:17;91.80;;;39.38;;
13255;SDS011;37913;48.370;10.930;2023-04-15T11:08:57;73.80;;;36.03;;
13255;SDS011;37913;48.370;10.930;2023-04-15T11:14:32;85.10;;;36.88;;
13255;SDS011;37913;48.370;10.930;2023-04-15T11:17:00;84.47;;;36.72;;
13255;SDS011;37913;48.370;10.930;2023-04-15T11:19:34;87.63;;;37.88;;
13255;SDS011;37913;48.370;10.930;2023-04-15T11:22:06;97.00;;;40.10;;
13255;SDS011;37913;48.370;10.930;2023-04-15T11:24:34;94.97;;;39.03;;
13255;SDS011;37913;48.370;10.930;2023-04-15T11:27:02;95.38;;;39.03;;
13255;SDS011;37913;48.370;10.930;2023-04-15T11:29:29;89.00;;;36.70;;
13255;SDS011;37913;48.370;10.930;2023-04-15T11:32:05;91.97;;;38.17;;
13255;SDS011;37913;48.370;10.930;2023-04-15T11:34:34;90.53;;;38.17;;
13255;SDS011;37913;48.370;10.930;2023-04-15T11:37:02;88.15;;;37.85;;
13255;SDS011;37913;48.370;10.930;2023-04-15T11:39:30;90.70;;;38.40;;
13255;SDS011;37913;48.370;10.930;2023-04-15T11:41:57;92.57;;;39.30;;
13255;SDS011;37913;48.370;10.930;2023-04-15T11:44:24;87.78;;;37.78;;
13255;SDS011;37913;48.370;10.930;2023-04-15T11:46:51;90.95;;;37.53;;
13255;SDS011;37913;48.370;10.930;2023-04-15T11:49:27;95.68;;;39.13;;
13255;SDS011;37913;48.370;10.930;2023-04-15T11:51:55;92.82;;;38.67;;
13255;SDS011;37913;48.370;10.930;2023-04-15T11:54:22;79.40;;;36.42;;
13255;SDS011;37913;48.370;10.930;2023-04-15T11:56:49;89.35;;;38.53;;
13255;SDS011;37913;48.370;10.930;2023-04-15T11:59:17;88.05;;;38.30;;
13255;SDS011;37913;48.370;10.930;2023-04-15T12:01:44;81.93;;;37.35;;
13255;SDS011;37913;48.370;10.930;2023-04-15T12:04:12;89.30;;;38.53;;
13255;SDS011;37913;48.370;10.930;2023-04-15T12:06:42;86.35;;;37.70;;
13255;SDS011;37913;48.370;10.930;2023-04-15T12:09:10;75.43;;;36.25;;
13255;SDS011;37913;48.370;10.930;2023-04-15T12:11:39;83.93;;;37.45;;
13255;SDS011;37913;48.370;10.930;2023-04-15T12:14:08;91.38;;;38.65;;
13255;SDS011;37913;48.370;10.930;2023-04-15T12:16:38;91.50;;;39.53;;
13255;SDS011;37913;48.370;10.930;2023-04-15T12:19:07;88.03;;;38.50;;
13255;SDS011;37913;48.370;10.930;2023-04-15T12:21:36;80.20;;;36.78;;
13255;SDS011;37913;48.370;10.930;2023-04-15T12:24:07;86.28;;;37.58;;
13255;SDS011;37913;48.370;10.930;2023-04-15T12:26:36;85.07;;;38.45;;
13255;SDS011;37913;48.370;10.930;2023-04-15T12:29:08;89.35;;;39.80;;
13255;SDS011;37913;48.370;10.930;2023-04-15T12:31:36;97.32;;;42.75;;
13255;SDS011;37913;48.370;10.930;2023-04-15T12:34:13;84.78;;;38.08;;
13255;SDS011;37913;48.370;10.930;2023-04-15T12:36:40;114.50;;;44.47;;
13255;SDS011;37913;48.370;10.930;2023-04-15T12:39:09;97.57;;;40.70;;
13255;SDS011;37913;48.370;10.930;2023-04-15T12:41:36;114.85;;;46.45;;
13255;SDS011;37913;48.370;10.930;2023-04-15T12:44:03;107.55;;;45.90;;
13255;SDS011;37913;48.370;10.930;2023-04-15T12:46:30;88.07;;;39.42;;
13255;SDS011;37913;48.370;10.930;2023-04-15T12:48:57;83.00;;;37.58;;
13255;SDS011;37913;48.370;10.930;2023-04-15T12:51:24;88.45;;;38.15;;
13255;SDS011;37913;48.370;10.930;2023-04-15T12:53:52;102.60;;;44.85;;
13255;SDS011;37913;48.370;10.930;2023-04-15T12:56:20;98.63;;;41.60;;
13255;SDS011;37913;48.370;10.930;2023-04-15T12:58:48;94.30;;;41.03;;
13255;SDS011;37913;48.370;10.930;2023-04-15T13:01:15;89.38;;;38.90;;
13255;SDS011;37913;48.370;10.930;2023-04-15T13:03:42;84.70;;;37.72;;
13255;SDS011;37913;48.370;10.930;2023-04-15T13:06:09;89.22;;;38.75;;
13255;SDS011;37913;48.370;10.930;2023-04-15T13:08:36;90.57;;;38.33;;
13255;SDS011;37913;48.370;10.930;2023-04-15T13:11:03;92.88;;;38.80;;
13255;SDS011;37913;48.370;10.930;2023-04-15T13:13:31;98.45;;;40.00;;
13255;SDS011;37913;48.370;10.930;2023-04-15T13:15:58;85.13;;;37.45;;
13255;SDS011;37913;48.370;10.930;2023-04-15T13:18:25;87.60;;;37.90;;
13255;SDS011;37913;48.370;10.930;2023-04-15T13:20:53;92.63;;;39.30;;
13255;SDS011;37913;48.370;10.930;2023-04-15T13:23:20;104.05;;;41.97;;
13255;SDS011;37913;48.370;10.930;2023-04-15T13:25:47;90.97;;;38.67;;
13255;SDS011;37913;48.370;10.930;2023-04-15T13:28:14;95.90;;;42.60;;
13255;SDS011;37913;48.370;10.930;2023-04-15T13:30:42;100.20;;;40.95;;
13255;SDS011;37913;48.370;10.930;2023-04-15T13:33:10;95.10;;;40.13;;
13255;SDS011;37913;48.370;10.930;2023-04-15T13:35:37;92.10;;;39.20;;
13255;SDS011;37913;48.370;10.930;2023-04-15T13:38:05;85.05;;;36.92;;
13255;SDS011;37913;48.370;10.930;2023-04-15T13:40:32;99.82;;;40.45;;
13255;SDS011;37913;48.370;10.930;2023-04-15T13:43:01;83.32;;;37.75;;
13255;SDS011;37913;48.370;10.930;2023-04-15T13:45:28;86.30;;;38.00;;
13255;SDS011;37913;48.370;10.930;2023-04-15T13:47:57;81.25;;;37.03;;
13255;SDS011;37913;48.370;10.930;2023-04-15T13:50:24;97.05;;;39.33;;
13255;SDS011;37913;48.370;10.930;2023-04-15T13:52:51;84.22;;;37.47;;
13255;SDS011;37913;48.370;10.930;2023-04-15T13:55:18;82.38;;;36.72;;
13255;SDS011;37913;48.370;10.930;2023-04-15T13:57:45;81.88;;;36.30;;
13255;SDS011;37913;48.370;10.930;2023-04-15T14:00:12;81.80;;;37.10;;
13255;SDS011;37913;48.370;10.930;2023-04-15T14:02:39;79.38;;;36.00;;
13255;SDS011;37913;48.370;10.930;2023-04-15T14:05:08;87.05;;;37.25;;
13255;SDS011;37913;48.370;10.930;2023-04-15T14:07:35;91.13;;;39.10;;
13255;SDS011;37913;48.370;10.930;2023-04-15T14:10:03;87.47;;;37.15;;
13255;SDS011;37913;48.370;10.930;2023-04-15T14:12:30;79.32;;;35.72;;
13255;SDS011;37913;48.370;10.930;2023-04-15T14:14:57;100.32;;;39.55;;
13255;SDS011;37913;48.370;10.930;2023-04-15T14:17:24;78.25;;;35.40;;